Hauptseite
METAR-TAF:

METAR-TAF

Flughäfen :

RNAS Culdrose

Culdrose, England

Breite: 50-05N, Länge: 005-15W, Höhe: 78 m

Beobachtung

Neuester Wetterbericht von vor 29 Minuten, um 06:50 UTC
Wind 5 kt aus Ost/Nordost
Temperatur -1°C
Luftfeuchtigkeit 100%
Luftdruck 1048 hPa
Sichtweite 10 km oder mehr
keine Wolken unter 1500 m und keine Kumulonimbus oder Gewitterwolken

METAR: EGDR 200650Z 07005KT CAVOK M01/M01 Q1048 BLU NOSIG RMK BLU BLU

Zeit: 07:19 (07:19 UTC)

Prognose

Neuester Wetterbericht von vor 2 Stunden und 3 Minuten, um 05:16 UTC
Gültige Prognose vom 20 um 07 UTC bis 20 um 16 UTC
Wind 5 kt aus Nord/Nordost
Sichtweite 10 km oder mehr
keine Wolken unter 1500 m und keine Kumulonimbus oder Gewitterwolken
Wahrscheinlichkeit 30% :
Zeitweise
vom 20 um 08 UTC bis 20 um 10 UTC
Sichtweite: 6000 m
feuchter Dunst

TAF: EGDR 200516Z 2007/2016 02005KT CAVOK PROB30 TEMPO 2008/2010 6000 BR

Wetterbeobachtungen und Prognosen von mehr als 4000 Flughäfen (METAR und TAF Bericht).

Die verfügbaren Stationen werden durch gelbe und rote Markierungen auf der Karte dargestellt.

Führen Sie die Maus auf sie, um den Namen der Station zu sehen.

Darauf klicken, um die Beobachtung von Wetterbeobachtungen und Prognosen zu sehen.

Um die Karte zu ändern : klicken Sie auf den grünen Tasten mit einem schwarzen Kreuz Zum Vergrößern, auf den grünen Button mit einem Gedankenstrich zu verkleinern, oder auf die grünen Pfeile für benachbarte Karten.


METAR-TAF: